Time;durP1;ratioP1;P1;durP2;ratioP2;P2;SDS_P1;SDS_P2;PMS_P1;PMS_P2;Temp;Humidity;BMP_temperature;BMP_pressure;BME280_temperature;BME280_humidity;BME280_pressure;Samples;Min_cycle;Max_cycle;Signal;HPM_P1;HPM_P2
2022/01/30 00:01:26;;;;;;;25.52;4.82;;;6.70;99.90;;;;;;5057746;28;20032;-74
2022/01/30 00:03:52;;;;;;;18.73;4.20;;;6.50;99.90;;;;;;5081221;28;20083;-74
2022/01/30 00:06:17;;;;;;;22.23;4.43;;;6.50;99.90;;;;;;5081285;28;20484;-74
2022/01/30 00:08:44;;;;;;;17.70;4.10;;;7.00;99.90;;;;;;5064338;28;20044;-74
2022/01/30 00:11:16;;;;;;;23.40;4.32;;;6.50;99.90;;;;;;5092073;28;20063;-75
2022/01/30 00:13:42;;;;;;;19.73;4.03;;;6.70;99.90;;;;;;5064292;28;20535;-75
2022/01/30 00:16:10;;;;;;;26.45;4.75;;;7.00;99.90;;;;;;5081382;28;20123;-74
2022/01/30 00:18:46;;;;;;;22.85;3.85;;;6.90;99.90;;;;;;5051071;28;20036;-75
2022/01/30 00:21:38;;;;;;;16.83;4.30;;;6.30;99.90;;;;;;5070498;28;20036;-74
2022/01/30 00:24:07;;;;;;;22.13;3.63;;;6.30;99.90;;;;;;5088856;28;20529;-74
2022/01/30 00:26:35;;;;;;;17.98;3.15;;;6.10;99.90;;;;;;5038287;28;20055;-75
2022/01/30 00:29:03;;;;;;;10.32;2.78;;;6.80;99.90;;;;;;5061515;28;20039;-75
2022/01/30 00:31:28;;;;;;;11.55;2.40;;;6.50;99.90;;;;;;5094031;28;20070;-75
2022/01/30 00:33:54;;;;;;;9.57;2.30;;;6.20;99.90;;;;;;5064787;28;20071;-75
2022/01/30 00:36:20;;;;;;;11.25;2.35;;;6.20;99.90;;;;;;5085876;28;20040;-75
2022/01/30 00:38:46;;;;;;;12.90;2.72;;;5.90;99.90;;;;;;5075666;28;20044;-75
2022/01/30 00:41:12;;;;;;;10.93;2.78;;;6.40;99.90;;;;;;5074841;28;20040;-76
2022/01/30 00:43:38;;;;;;;11.40;2.05;;;6.40;99.90;;;;;;5074525;28;20036;-75
2022/01/30 00:46:04;;;;;;;14.57;3.83;;;6.10;99.90;;;;;;5082205;28;20039;-75
2022/01/30 00:48:29;;;;;;;15.35;2.92;;;6.10;99.90;;;;;;5076194;28;20035;-76
2022/01/30 00:50:55;;;;;;;21.25;3.45;;;5.90;99.90;;;;;;5052714;28;20101;-76
2022/01/30 00:53:21;;;;;;;14.88;3.05;;;6.30;99.90;;;;;;5092757;28;20062;-76
2022/01/30 00:55:46;;;;;;;13.35;2.95;;;6.20;99.90;;;;;;5088063;28;20121;-76
2022/01/30 00:58:13;;;;;;;16.30;3.28;;;6.00;99.90;;;;;;5094250;28;20067;-76
2022/01/30 01:00:40;;;;;;;20.55;4.43;;;6.40;99.90;;;;;;5083865;28;20047;-75
2022/01/30 01:03:06;;;;;;;23.52;3.58;;;5.90;99.90;;;;;;5074477;28;20040;-75
2022/01/30 01:05:34;;;;;;;22.33;5.07;;;5.60;99.90;;;;;;5084789;28;20039;-75
2022/01/30 01:08:09;;;;;;;20.05;3.60;;;5.50;99.90;;;;;;5076047;28;20081;-76
2022/01/30 01:10:48;;;;;;;27.23;4.03;;;6.00;99.90;;;;;;5067013;28;20044;-75
2022/01/30 01:23:44;;;;;;;21.55;4.22;;;6.10;99.90;;;;;;5058201;28;20487;-76
2022/01/30 01:26:10;;;;;;;26.38;4.78;;;6.10;99.90;;;;;;5083708;28;20043;-76
2022/01/30 01:28:36;;;;;;;31.10;5.80;;;6.10;99.90;;;;;;5092511;28;20135;-76
2022/01/30 01:31:02;;;;;;;26.88;5.07;;;6.60;99.90;;;;;;5057298;28;20122;-76
2022/01/30 01:33:44;;;;;;;28.25;5.00;;;6.50;99.90;;;;;;5062167;28;20054;-76
2022/01/30 01:36:10;;;;;;;33.78;5.68;;;6.40;99.90;;;;;;5050800;28;20039;-76
2022/01/30 01:38:36;;;;;;;22.70;4.70;;;6.10;99.90;;;;;;5086566;28;20384;-77
2022/01/30 01:41:01;;;;;;;25.08;5.40;;;6.90;99.90;;;;;;5038950;28;20040;-76
2022/01/30 01:43:27;;;;;;;18.15;4.35;;;6.90;99.90;;;;;;5054207;28;20043;-76
2022/01/30 01:45:56;;;;;;;26.13;4.35;;;6.60;99.90;;;;;;5046398;28;20575;-76
2022/01/30 01:48:22;;;;;;;19.02;4.80;;;6.70;99.90;;;;;;5072068;28;20048;-75
2022/01/30 01:51:03;;;;;;;14.52;4.40;;;6.40;99.90;;;;;;5056968;28;20040;-76
2022/01/30 01:53:29;;;;;;;18.67;3.97;;;6.60;99.90;;;;;;5088995;28;20063;-75
2022/01/30 01:55:54;;;;;;;26.65;5.70;;;6.20;99.90;;;;;;5059936;28;20385;-76
2022/01/30 01:58:24;;;;;;;24.92;5.55;;;6.50;99.90;;;;;;5078377;28;20063;-75
2022/01/30 02:00:50;;;;;;;25.40;4.72;;;6.20;99.90;;;;;;5088469;28;20040;-75
2022/01/30 02:03:17;;;;;;;26.20;5.05;;;6.00;99.90;;;;;;5056070;28;20040;-75
2022/01/30 02:05:50;;;;;;;21.83;4.40;;;6.60;99.90;;;;;;5072133;28;20135;-75
2022/01/30 02:13:42;;;;;;;;;;;5.90;99.90;;;;;;5075465;28;20050;-76
2022/01/30 02:24:36;;;;;;;21.90;5.25;;;6.50;99.90;;;;;;5031224;28;20139;-74
2022/01/30 02:27:02;;;;;;;22.90;5.30;;;6.40;99.90;;;;;;5058594;28;20109;-74
2022/01/30 02:29:29;;;;;;;26.42;6.35;;;6.60;99.90;;;;;;5070931;28;20048;-74
2022/01/30 02:31:57;;;;;;;20.55;4.47;;;6.90;99.90;;;;;;5088918;28;20079;-74
2022/01/30 02:34:27;;;;;;;16.98;4.20;;;6.40;99.90;;;;;;5042497;28;20037;-74
2022/01/30 02:36:54;;;;;;;18.67;4.40;;;6.10;99.90;;;;;;5085115;28;20032;-75
2022/01/30 02:39:20;;;;;;;19.23;4.53;;;6.50;99.90;;;;;;5090565;28;20040;-75
2022/01/30 02:41:46;;;;;;;24.73;4.78;;;6.40;99.90;;;;;;5081132;28;20036;-75
2022/01/30 02:44:24;;;;;;;39.58;6.47;;;6.60;99.90;;;;;;5050565;28;20040;-75
2022/01/30 02:46:52;;;;;;;23.60;4.43;;;6.20;99.90;;;;;;5089229;28;20052;-75
2022/01/30 02:52:02;;;;;;;35.10;7.00;;;6.50;99.90;;;;;;5044918;28;20052;-75
2022/01/30 02:54:30;;;;;;;22.25;5.57;;;5.90;99.90;;;;;;5078570;28;20052;-75
2022/01/30 02:56:56;;;;;;;32.25;6.60;;;6.20;99.90;;;;;;5063241;28;20045;-76
2022/01/30 02:59:23;;;;;;;30.50;6.90;;;6.20;99.90;;;;;;5052313;28;20098;-75
2022/01/30 03:01:49;;;;;;;30.85;5.28;;;6.10;99.90;;;;;;5070349;28;20063;-75
2022/01/30 03:04:15;;;;;;;35.33;6.78;;;6.50;99.90;;;;;;5052738;28;20043;-75
2022/01/30 03:06:41;;;;;;;35.97;9.32;;;6.50;99.90;;;;;;5054348;28;20045;-75
2022/01/30 03:09:08;;;;;;;27.33;5.82;;;6.20;99.90;;;;;;5070513;28;20114;-75
2022/01/30 03:11:35;;;;;;;40.47;7.65;;;6.50;99.90;;;;;;5092573;28;20036;-75
2022/01/30 03:14:02;;;;;;;33.03;6.93;;;6.40;99.90;;;;;;5070530;28;20117;-74
2022/01/30 03:16:27;;;;;;;26.35;6.18;;;6.10;99.90;;;;;;5075677;28;20032;-75
2022/01/30 03:18:53;;;;;;;28.85;4.85;;;6.20;99.90;;;;;;5070931;28;20452;-75
2022/01/30 03:21:19;;;;;;;29.27;6.45;;;6.50;99.90;;;;;;5057942;28;20043;-75
2022/01/30 03:23:45;;;;;;;36.42;5.55;;;6.30;99.90;;;;;;5046097;28;20040;-75
2022/01/30 03:26:13;;;;;;;32.38;5.72;;;6.40;99.90;;;;;;5074309;28;20050;-75
2022/01/30 03:28:40;;;;;;;27.75;5.57;;;6.00;99.90;;;;;;5071611;28;20427;-74
2022/01/30 03:31:09;;;;;;;23.92;6.25;;;6.20;99.90;;;;;;5091953;28;20040;-75
2022/01/30 03:33:36;;;;;;;25.67;6.50;;;6.10;99.90;;;;;;5089534;28;20040;-75
2022/01/30 03:36:01;;;;;;;31.38;5.85;;;6.30;99.90;;;;;;5053018;28;20047;-75
2022/01/30 03:38:28;;;;;;;34.70;7.20;;;6.30;99.90;;;;;;5053783;28;20035;-75
2022/01/30 03:40:54;;;;;;;29.80;5.90;;;6.00;99.90;;;;;;5070934;28;20119;-75
2022/01/30 03:43:20;;;;;;;29.80;6.85;;;6.20;99.90;;;;;;5057027;28;20533;-75
2022/01/30 03:45:47;;;;;;;36.78;7.78;;;6.50;99.90;;;;;;5051785;28;20399;-76
2022/01/30 03:48:14;;;;;;;31.17;6.10;;;6.00;99.90;;;;;;5047023;28;20047;-75
2022/01/30 03:50:41;;;;;;;28.48;6.47;;;6.20;99.90;;;;;;5062741;28;20040;-75
2022/01/30 03:53:07;;;;;;;26.60;6.10;;;6.00;99.90;;;;;;5064080;28;20399;-75
2022/01/30 03:55:33;;;;;;;35.67;6.82;;;6.80;99.90;;;;;;5081980;28;20040;-75
2022/01/30 03:57:59;;;;;;;33.83;6.05;;;6.10;99.90;;;;;;5080064;28;20040;-75
2022/01/30 04:00:24;;;;;;;34.17;6.18;;;6.40;99.90;;;;;;5053031;28;20479;-75
2022/01/30 04:02:50;;;;;;;27.02;6.20;;;6.70;99.90;;;;;;5074717;28;20051;-75
2022/01/30 04:05:16;;;;;;;27.42;5.68;;;6.20;99.90;;;;;;5087082;28;20032;-75
2022/01/30 04:07:44;;;;;;;27.25;5.43;;;6.60;99.90;;;;;;5091396;28;20074;-75
2022/01/30 04:10:10;;;;;;;35.38;7.28;;;6.70;99.90;;;;;;5060115;28;20165;-75
2022/01/30 04:12:36;;;;;;;32.15;5.65;;;6.20;99.90;;;;;;5079808;28;20044;-76
2022/01/30 04:15:03;;;;;;;33.17;7.00;;;6.60;99.90;;;;;;5074740;28;20036;-76
2022/01/30 04:17:28;;;;;;;28.73;5.65;;;6.30;99.90;;;;;;5090698;28;20119;-76
2022/01/30 04:19:54;;;;;;;29.80;5.90;;;6.20;99.90;;;;;;5063502;28;20190;-75
2022/01/30 04:22:20;;;;;;;28.52;5.38;;;6.30;99.90;;;;;;5064846;28;20043;-76
2022/01/30 04:24:46;;;;;;;33.30;6.90;;;6.50;99.90;;;;;;5094153;28;20046;-76
2022/01/30 04:27:11;;;;;;;24.38;6.07;;;6.10;99.90;;;;;;5073830;28;20571;-76
2022/01/30 04:29:37;;;;;;;30.67;6.20;;;6.40;99.90;;;;;;5076346;28;20055;-76
2022/01/30 04:32:03;;;;;;;27.60;6.97;;;6.40;99.90;;;;;;5092151;28;20038;-77
2022/01/30 04:34:31;;;;;;;28.65;6.10;;;6.40;99.90;;;;;;5066448;28;20125;-76
2022/01/30 04:37:23;;;;;;;43.97;8.82;;;6.10;99.90;;;;;;5057448;28;20036;-76
2022/01/30 05:01:22;;;;;;;29.38;5.90;;;6.30;99.90;;;;;;5069476;28;20040;-76
2022/01/30 05:06:18;;;;;;;25.33;5.50;;;5.90;99.90;;;;;;5058726;28;20062;-76
2022/01/30 05:08:44;;;;;;;24.52;6.25;;;6.20;99.90;;;;;;5041923;28;20048;-76
2022/01/30 05:11:10;;;;;;;30.88;6.22;;;5.80;99.90;;;;;;5066112;28;20059;-77
2022/01/30 05:13:43;;;;;;;37.58;7.35;;;6.20;99.90;;;;;;5037427;28;20131;-77
2022/01/30 05:16:09;;;;;;;38.60;7.90;;;6.40;99.90;;;;;;5021197;28;20036;-76
2022/01/30 05:18:35;;;;;;;43.75;7.97;;;6.30;99.90;;;;;;5053029;28;20044;-76
2022/01/30 05:21:01;;;;;;;35.42;7.50;;;6.70;99.90;;;;;;5047314;28;20043;-76
2022/01/30 05:23:27;;;;;;;34.28;7.35;;;6.30;99.90;;;;;;5070199;28;20083;-76
2022/01/30 05:25:54;;;;;;;35.17;8.18;;;6.80;99.90;;;;;;5066063;28;20071;-75
2022/01/30 05:28:24;;;;;;;40.20;6.40;;;5.80;99.90;;;;;;5037888;28;20047;-75
2022/01/30 05:30:51;;;;;;;45.97;7.30;;;6.50;99.90;;;;;;5054219;28;20450;-75
2022/01/30 05:33:17;;;;;;;38.65;9.05;;;7.00;99.90;;;;;;5056373;28;20041;-76
2022/01/30 05:35:43;;;;;;;36.15;6.78;;;6.00;99.90;;;;;;5037722;28;20032;-76
2022/01/30 05:38:09;;;;;;;36.95;6.50;;;6.70;99.90;;;;;;5078764;28;20791;-77
2022/01/30 05:40:36;;;;;;;24.35;5.82;;;6.50;99.90;;;;;;5034291;28;20044;-76
2022/01/30 05:43:04;;;;;;;34.40;5.88;;;6.30;99.90;;;;;;5040471;28;20076;-76
2022/01/30 05:45:40;;;;;;;30.10;6.18;;;6.50;99.90;;;;;;5067534;28;20052;-78
2022/01/30 05:48:14;;;;;;;28.40;4.60;;;5.80;99.90;;;;;;5048802;28;20039;-77
2022/01/30 05:50:40;;;;;;;28.33;5.15;;;6.90;99.90;;;;;;5053951;28;20040;-76
2022/01/30 05:53:06;;;;;;;24.10;5.60;;;5.60;99.90;;;;;;5072682;28;20459;-75
2022/01/30 05:55:32;;;;;;;22.75;5.03;;;6.00;99.90;;;;;;5061648;28;20067;-75
2022/01/30 05:57:58;;;;;;;27.77;6.78;;;6.60;99.90;;;;;;5072127;28;20141;-75
2022/01/30 06:00:24;;;;;;;24.35;6.05;;;7.20;99.90;;;;;;5064318;28;20087;-75
2022/01/30 06:02:50;;;;;;;26.75;6.47;;;7.10;99.90;;;;;;5035755;28;20484;-75
2022/01/30 06:05:18;;;;;;;27.85;5.15;;;6.60;99.90;;;;;;5056133;28;20054;-75
2022/01/30 06:08:10;;;;;;;26.10;4.40;;;6.40;99.90;;;;;;5063076;28;20044;-75
2022/01/30 06:10:32;;;;;;;33.88;5.55;;;6.50;99.90;;;;;;5084147;28;20036;-75
2022/01/30 06:12:57;;;;;;;25.17;5.50;;;6.50;99.90;;;;;;5076591;28;20546;-75
2022/01/30 06:15:23;;;;;;;24.52;6.28;;;5.70;99.90;;;;;;5061122;28;20483;-75
2022/01/30 06:17:49;;;;;;;23.95;5.38;;;6.30;99.90;;;;;;5081695;28;20035;-75
2022/01/30 06:20:15;;;;;;;28.70;6.10;;;5.50;99.90;;;;;;5042079;28;20033;-75
2022/01/30 06:22:41;;;;;;;41.00;7.03;;;6.70;99.90;;;;;;5065702;28;20093;-75
2022/01/30 06:25:07;;;;;;;32.05;5.80;;;5.70;99.90;;;;;;5079465;28;20094;-75
2022/01/30 06:27:33;;;;;;;24.30;5.32;;;5.60;99.90;;;;;;5064070;28;20463;-76
2022/01/30 06:29:58;;;;;;;37.25;6.05;;;6.60;99.90;;;;;;5058143;28;20044;-75
2022/01/30 06:32:24;;;;;;;40.47;7.35;;;6.50;99.90;;;;;;5085395;28;20417;-75
2022/01/30 06:34:50;;;;;;;28.13;6.65;;;5.90;99.90;;;;;;5067829;28;20039;-75
2022/01/30 06:37:15;;;;;;;32.13;7.25;;;6.50;99.90;;;;;;5088110;28;20487;-75
2022/01/30 06:39:41;;;;;;;24.30;4.80;;;5.90;99.90;;;;;;5055362;28;20040;-75
2022/01/30 06:42:07;;;;;;;21.73;5.28;;;5.90;99.90;;;;;;5062416;28;20123;-75
2022/01/30 06:44:33;;;;;;;27.38;5.22;;;6.10;99.90;;;;;;5079338;28;21084;-75
2022/01/30 06:46:59;;;;;;;31.33;6.10;;;5.90;99.90;;;;;;5058645;28;20496;-75
2022/01/30 06:49:25;;;;;;;26.75;6.05;;;6.00;99.90;;;;;;5042081;28;20060;-75
2022/01/30 06:51:51;;;;;;;24.48;5.10;;;5.90;99.90;;;;;;5065112;28;20044;-75
2022/01/30 06:54:16;;;;;;;38.78;7.72;;;5.90;99.90;;;;;;5074428;28;20087;-75
2022/01/30 06:56:42;;;;;;;27.77;5.60;;;5.70;99.90;;;;;;5072705;28;20048;-75
2022/01/30 06:59:08;;;;;;;24.15;5.05;;;5.80;99.90;;;;;;5073206;28;20167;-75
2022/01/30 07:01:33;;;;;;;26.50;5.32;;;6.20;99.90;;;;;;5067654;28;20027;-75
2022/01/30 07:03:59;;;;;;;26.85;5.22;;;6.00;99.90;;;;;;5046793;28;20123;-77
2022/01/30 07:06:25;;;;;;;28.05;5.50;;;6.00;99.90;;;;;;5073178;28;20457;-76
2022/01/30 07:08:50;;;;;;;32.33;6.65;;;6.10;99.90;;;;;;5079093;28;20044;-77
2022/01/30 07:11:16;;;;;;;18.40;4.50;;;5.80;99.90;;;;;;5067962;28;20037;-76
2022/01/30 07:13:43;;;;;;;18.08;4.35;;;6.00;99.90;;;;;;5084811;28;20841;-76
2022/01/30 07:16:09;;;;;;;27.73;5.82;;;5.90;99.90;;;;;;5082383;28;20031;-75
2022/01/30 07:18:34;;;;;;;25.65;6.05;;;5.80;99.90;;;;;;5057349;28;20040;-76
2022/01/30 07:21:00;;;;;;;23.67;4.93;;;5.70;99.90;;;;;;5061300;28;20032;-76
2022/01/30 07:23:26;;;;;;;20.17;3.83;;;5.70;99.90;;;;;;5038388;28;20044;-75
2022/01/30 07:25:51;;;;;;;19.75;3.78;;;5.70;99.90;;;;;;5039062;28;21091;-76
2022/01/30 07:28:17;;;;;;;30.70;5.40;;;5.70;99.90;;;;;;5069466;28;20068;-76
2022/01/30 07:30:43;;;;;;;17.27;3.53;;;5.70;99.90;;;;;;5061656;28;20043;-76
2022/01/30 07:33:10;;;;;;;28.85;6.22;;;5.70;99.90;;;;;;5071324;28;20080;-77
2022/01/30 07:35:39;;;;;;;27.35;4.43;;;5.70;99.90;;;;;;5058591;28;20045;-75
2022/01/30 07:38:05;;;;;;;21.15;4.55;;;5.70;99.90;;;;;;5064077;28;20094;-76
2022/01/30 07:40:34;;;;;;;20.42;5.15;;;5.70;99.90;;;;;;5080668;28;20036;-75
2022/01/30 07:42:59;;;;;;;22.27;4.82;;;5.80;99.90;;;;;;5069043;28;20067;-77
2022/01/30 07:45:26;;;;;;;24.52;4.68;;;5.80;99.90;;;;;;5072371;28;20064;-77
2022/01/30 07:47:52;;;;;;;21.30;5.45;;;5.80;99.90;;;;;;5059007;28;20052;-77
2022/01/30 07:50:18;;;;;;;19.38;4.32;;;5.90;99.90;;;;;;5084574;28;20036;-75
2022/01/30 07:52:44;;;;;;;22.92;5.40;;;5.80;99.90;;;;;;5068060;28;20423;-76
2022/01/30 07:55:09;;;;;;;23.15;5.30;;;5.80;99.90;;;;;;5083951;28;20044;-75
2022/01/30 07:57:35;;;;;;;25.92;5.38;;;5.80;99.90;;;;;;5083511;28;20059;-75
2022/01/30 08:00:01;;;;;;;31.33;5.80;;;5.80;99.90;;;;;;5084472;28;20036;-75
2022/01/30 08:02:27;;;;;;;19.13;5.13;;;5.90;99.90;;;;;;5075447;28;20038;-76
2022/01/30 08:04:54;;;;;;;23.05;4.70;;;5.90;99.90;;;;;;5084375;28;20522;-76
2022/01/30 08:07:19;;;;;;;41.25;7.63;;;5.90;99.90;;;;;;5041333;28;20036;-76
2022/01/30 08:09:45;;;;;;;38.75;6.60;;;5.90;99.90;;;;;;5056846;28;20040;-75
2022/01/30 08:12:11;;;;;;;20.85;5.05;;;5.80;99.90;;;;;;5047490;28;20048;-75
2022/01/30 08:14:37;;;;;;;30.92;7.03;;;5.90;99.90;;;;;;5076307;28;20177;-75
2022/01/30 08:17:03;;;;;;;32.75;5.65;;;6.00;99.90;;;;;;5084308;28;20396;-76
2022/01/30 08:19:29;;;;;;;26.08;5.13;;;6.00;99.90;;;;;;5083994;28;20035;-74
2022/01/30 08:21:57;;;;;;;29.88;6.38;;;5.90;99.90;;;;;;5061714;28;20594;-74
2022/01/30 08:24:24;;;;;;;26.38;5.43;;;6.00;99.90;;;;;;5044432;28;20040;-74
2022/01/30 08:26:50;;;;;;;28.63;5.78;;;6.00;99.90;;;;;;5070167;28;20035;-74
2022/01/30 08:29:16;;;;;;;30.77;5.32;;;6.00;99.90;;;;;;5083952;28;20392;-75
2022/01/30 08:31:42;;;;;;;34.53;6.55;;;6.10;99.90;;;;;;5079112;28;20048;-76
2022/01/30 08:34:08;;;;;;;26.95;6.05;;;6.00;99.90;;;;;;5058415;28;20051;-74
2022/01/30 08:36:33;;;;;;;32.83;7.22;;;5.90;99.90;;;;;;5079085;28;20404;-74
2022/01/30 08:38:59;;;;;;;25.95;6.30;;;6.00;99.90;;;;;;5067864;28;20083;-73
2022/01/30 08:41:25;;;;;;;26.17;6.00;;;5.80;99.90;;;;;;5061017;28;20051;-73
2022/01/30 08:43:50;;;;;;;21.90;5.22;;;5.80;99.90;;;;;;5061192;28;20071;-74
2022/01/30 08:46:17;;;;;;;20.42;4.53;;;5.90;99.90;;;;;;5032551;28;20032;-73
2022/01/30 08:48:43;;;;;;;30.05;6.20;;;6.10;99.90;;;;;;5082633;28;20083;-74
2022/01/30 08:51:08;;;;;;;21.02;5.32;;;6.20;99.90;;;;;;5047734;28;20440;-74
2022/01/30 08:53:34;;;;;;;22.75;4.45;;;6.30;99.90;;;;;;5089900;28;20507;-74
2022/01/30 08:56:00;;;;;;;23.38;5.30;;;6.20;99.90;;;;;;5070808;28;20109;-74
2022/01/30 08:58:25;;;;;;;31.83;5.53;;;6.10;99.90;;;;;;5073966;28;20043;-74
2022/01/30 09:00:51;;;;;;;21.65;4.28;;;6.00;99.90;;;;;;5066342;28;20036;-74
2022/01/30 09:03:17;;;;;;;28.10;5.43;;;6.00;99.90;;;;;;5059081;28;20112;-74
2022/01/30 09:05:43;;;;;;;24.02;5.18;;;6.00;99.90;;;;;;5060949;28;20131;-74
2022/01/30 09:08:08;;;;;;;25.10;5.22;;;6.10;99.90;;;;;;5065092;28;20080;-74
2022/01/30 09:10:36;;;;;;;21.42;5.22;;;6.10;99.90;;;;;;5058137;28;20048;-74
2022/01/30 09:13:03;;;;;;;38.13;5.35;;;6.10;99.90;;;;;;5078400;28;20047;-74
2022/01/30 09:15:29;;;;;;;22.08;4.80;;;6.50;99.90;;;;;;5075228;28;20178;-74
2022/01/30 09:17:58;;;;;;;27.08;5.60;;;6.40;99.90;;;;;;5070901;28;20040;-73
2022/01/30 09:20:24;;;;;;;32.70;6.10;;;6.60;99.90;;;;;;5044529;28;20040;-74
2022/01/30 09:22:51;;;;;;;23.25;5.47;;;6.60;99.90;;;;;;5061501;28;20067;-73
2022/01/30 09:25:17;;;;;;;21.38;4.20;;;6.50;99.90;;;;;;5047419;28;20036;-75
2022/01/30 09:27:43;;;;;;;28.83;6.30;;;6.40;99.90;;;;;;5074550;28;20044;-74
2022/01/30 09:30:10;;;;;;;25.55;5.82;;;6.40;99.90;;;;;;5058326;28;20076;-74
2022/01/30 09:32:36;;;;;;;24.85;5.35;;;6.30;99.90;;;;;;5079666;28;20047;-74
2022/01/30 09:35:03;;;;;;;21.48;5.50;;;6.20;99.90;;;;;;5057175;28;20058;-73
2022/01/30 09:37:29;;;;;;;26.95;4.88;;;6.20;99.90;;;;;;5074494;28;20104;-74
2022/01/30 09:39:54;;;;;;;30.73;5.45;;;6.60;99.90;;;;;;5057960;28;20116;-73
2022/01/30 09:42:23;;;;;;;18.30;5.38;;;6.70;99.90;;;;;;5055180;28;20067;-73
2022/01/30 09:44:49;;;;;;;22.33;4.97;;;6.60;99.90;;;;;;5069752;28;20422;-73
2022/01/30 09:47:17;;;;;;;16.02;3.55;;;6.60;99.90;;;;;;5065232;28;20044;-73
2022/01/30 09:49:50;;;;;;;25.02;4.63;;;6.80;99.90;;;;;;5061529;28;20409;-74
2022/01/30 09:52:18;;;;;;;22.27;5.47;;;6.70;99.90;;;;;;5067119;28;20044;-73
2022/01/30 09:54:44;;;;;;;20.98;4.68;;;6.60;99.90;;;;;;5048965;28;20052;-75
2022/01/30 09:57:10;;;;;;;27.17;5.60;;;6.50;99.90;;;;;;5065594;28;20040;-74
2022/01/30 09:59:36;;;;;;;25.73;6.03;;;6.50;99.90;;;;;;5048895;28;20050;-74
2022/01/30 10:02:06;;;;;;;23.33;4.82;;;6.60;99.90;;;;;;5048859;28;20077;-74
2022/01/30 10:04:33;;;;;;;20.10;5.38;;;7.00;99.90;;;;;;5065737;28;20032;-74
2022/01/30 10:07:04;;;;;;;20.40;4.85;;;7.00;99.90;;;;;;5065570;28;20044;-75
2022/01/30 10:09:34;;;;;;;33.08;6.57;;;6.80;99.90;;;;;;5049541;28;20040;-74
2022/01/30 10:15:00;;;;;;;28.50;5.68;;;6.90;99.90;;;;;;5046200;28;20056;-74
2022/01/30 10:17:41;;;;;;;25.33;5.03;;;7.20;99.90;;;;;;5063886;28;20115;-75
2022/01/30 10:20:34;;;;;;;23.52;5.15;;;7.20;99.90;;;;;;5046275;28;20032;-74
2022/01/30 10:23:04;;;;;;;22.15;4.80;;;7.30;99.90;;;;;;5062893;28;20563;-73
2022/01/30 10:25:38;;;;;;;25.38;5.90;;;7.40;99.90;;;;;;5055327;28;20039;-73
2022/01/30 10:28:19;;;;;;;31.92;5.22;;;7.40;99.90;;;;;;5062427;28;20051;-73
2022/01/30 10:31:17;;;;;;;23.80;5.13;;;7.30;99.90;;;;;;5067423;28;20256;-73
2022/01/30 10:33:45;;;;;;;19.73;4.95;;;7.50;99.90;;;;;;5056919;28;20090;-72
2022/01/30 10:36:25;;;;;;;22.38;5.07;;;7.50;99.90;;;;;;5050921;28;20662;-73
2022/01/30 10:39:04;;;;;;;20.67;5.03;;;7.60;99.90;;;;;;5065004;28;20044;-74
2022/01/30 10:41:39;;;;;;;19.80;4.68;;;7.50;99.90;;;;;;5042662;28;20054;-73
2022/01/30 10:44:09;;;;;;;23.33;5.15;;;7.30;99.90;;;;;;5065057;28;20044;-73
2022/01/30 10:46:47;;;;;;;22.10;4.50;;;7.40;99.90;;;;;;5048323;28;20058;-73
2022/01/30 10:49:22;;;;;;;27.80;5.13;;;7.10;99.90;;;;;;5047843;28;20140;-73
2022/01/30 10:51:56;;;;;;;27.80;4.70;;;7.00;99.90;;;;;;5046675;28;20071;-74
2022/01/30 10:54:32;;;;;;;15.70;4.60;;;7.20;99.90;;;;;;5035633;28;20052;-74
2022/01/30 10:57:09;;;;;;;21.52;4.85;;;7.20;99.90;;;;;;5040985;28;20409;-73
2022/01/30 10:59:42;;;;;;;26.60;5.67;;;7.30;99.90;;;;;;5042299;28;20112;-74
2022/01/30 11:02:17;;;;;;;24.08;6.25;;;7.30;99.90;;;;;;5040581;28;20639;-74
2022/01/30 11:04:46;;;;;;;28.17;5.53;;;7.30;99.90;;;;;;5040555;28;20048;-73
2022/01/30 11:07:19;;;;;;;27.15;5.43;;;7.30;99.90;;;;;;5005209;28;20132;-73
2022/01/30 11:10:22;;;;;;;25.95;5.28;;;7.30;99.90;;;;;;5006896;28;20049;-73
2022/01/30 11:12:57;;;;;;;23.25;4.90;;;7.40;99.90;;;;;;5024403;28;20045;-75
2022/01/30 11:17:50;;;;;;;20.65;4.72;;;7.40;99.90;;;;;;5045203;28;20083;-73
2022/01/30 11:20:16;;;;;;;19.20;5.07;;;7.30;99.90;;;;;;5044995;28;20041;-73
2022/01/30 11:22:46;;;;;;;26.65;5.03;;;7.40;99.90;;;;;;5045812;28;20076;-73
2022/01/30 11:25:13;;;;;;;28.60;4.75;;;7.50;99.90;;;;;;5043732;28;20045;-73
2022/01/30 11:27:43;;;;;;;22.50;5.00;;;7.50;99.90;;;;;;5044983;28;20061;-73
2022/01/30 11:30:10;;;;;;;24.98;6.20;;;7.50;99.90;;;;;;5028763;28;20057;-73
2022/01/30 11:32:36;;;;;;;22.70;4.60;;;7.60;99.90;;;;;;5044930;28;20041;-73
2022/01/30 11:35:03;;;;;;;23.55;5.55;;;7.50;99.90;;;;;;5028487;28;20783;-74
2022/01/30 11:37:32;;;;;;;20.27;4.75;;;7.40;99.90;;;;;;5045798;28;20045;-73
2022/01/30 11:40:00;;;;;;;19.77;4.40;;;7.50;99.90;;;;;;5044456;28;20441;-73
2022/01/30 11:42:44;;;;;;;23.08;5.00;;;7.50;99.90;;;;;;5028573;28;20162;-73
2022/01/30 11:45:15;;;;;;;25.02;4.78;;;7.50;99.90;;;;;;5044556;28;20048;-73
2022/01/30 11:47:59;;;;;;;30.85;6.35;;;7.60;99.90;;;;;;5044334;28;20047;-74
2022/01/30 11:50:31;;;;;;;22.30;4.55;;;7.50;99.90;;;;;;5046169;28;20045;-75
2022/01/30 11:52:58;;;;;;;24.17;5.43;;;7.50;99.90;;;;;;5028963;28;20049;-73
2022/01/30 11:55:39;;;;;;;28.88;6.07;;;7.50;99.90;;;;;;5044693;28;20060;-74
2022/01/30 11:58:05;;;;;;;25.50;5.35;;;7.80;99.90;;;;;;5044232;28;20116;-73
2022/01/30 12:00:46;;;;;;;26.65;5.15;;;7.80;99.90;;;;;;5027081;28;20091;-73
2022/01/30 12:03:26;;;;;;;23.25;5.43;;;7.80;99.90;;;;;;5024426;28;20076;-73
2022/01/30 12:05:52;;;;;;;25.60;5.82;;;7.60;99.90;;;;;;5033795;28;20106;-74
2022/01/30 12:09:17;;;;;;;33.65;5.68;;;7.60;99.90;;;;;;5043934;28;20989;-73
2022/01/30 12:11:47;;;;;;;38.15;4.50;;;7.80;99.90;;;;;;4931877;28;20085;-75
2022/01/30 12:14:19;;;;;;;22.38;5.28;;;7.70;99.90;;;;;;4948049;28;20050;-74
2022/01/30 12:16:47;;;;;;;22.27;5.03;;;7.60;99.90;;;;;;5004334;28;20139;-74
2022/01/30 12:19:18;;;;;;;23.13;6.18;;;8.00;99.90;;;;;;5027759;28;20047;-75
2022/01/30 12:21:44;;;;;;;16.90;4.85;;;7.40;99.90;;;;;;5023182;28;20076;-74
2022/01/30 12:24:31;;;;;;;22.25;4.82;;;7.20;99.90;;;;;;5007611;28;20045;-74
2022/01/30 12:27:00;;;;;;;29.25;4.22;;;7.00;99.90;;;;;;5007797;28;20052;-74
2022/01/30 12:29:40;;;;;;;26.33;4.10;;;6.90;99.90;;;;;;5023995;28;20037;-74
2022/01/30 12:32:27;;;;;;;22.98;4.43;;;6.80;99.90;;;;;;5042705;28;20041;-73
2022/01/30 12:34:55;;;;;;;23.77;4.75;;;6.70;99.90;;;;;;5010900;28;20052;-73
2022/01/30 12:37:27;;;;;;;32.97;6.78;;;6.60;99.90;;;;;;5043100;28;20123;-73
2022/01/30 12:39:54;;;;;;;16.83;4.35;;;6.80;99.90;;;;;;5043685;28;20143;-73
2022/01/30 12:42:22;;;;;;;22.45;4.60;;;7.00;99.90;;;;;;5043650;28;20053;-72
2022/01/30 12:44:48;;;;;;;28.25;4.82;;;7.00;99.90;;;;;;5044199;28;20446;-74
2022/01/30 12:47:15;;;;;;;19.73;4.72;;;7.00;99.90;;;;;;5043811;28;20045;-73
2022/01/30 12:49:47;;;;;;;29.85;5.35;;;7.10;99.90;;;;;;5043504;28;20049;-73
2022/01/30 12:52:21;;;;;;;23.30;5.15;;;7.10;99.90;;;;;;5043567;28;20421;-74
2022/01/30 12:54:50;;;;;;;27.40;5.72;;;7.40;99.90;;;;;;5041750;28;20060;-74
2022/01/30 12:57:19;;;;;;;22.00;3.90;;;7.50;99.90;;;;;;5043061;28;20056;-73
2022/01/30 12:59:53;;;;;;;26.30;5.90;;;7.70;99.90;;;;;;5043746;28;20723;-73
2022/01/30 13:02:20;;;;;;;13.13;3.50;;;7.30;99.90;;;;;;5043712;28;20844;-73
2022/01/30 13:04:46;;;;;;;27.05;4.63;;;7.10;99.90;;;;;;5044503;28;20767;-73
2022/01/30 13:07:13;;;;;;;24.50;4.80;;;6.80;99.90;;;;;;5028686;28;20542;-74
2022/01/30 13:09:39;;;;;;;23.95;5.43;;;6.80;99.90;;;;;;5026810;28;20175;-74
2022/01/30 13:12:13;;;;;;;24.15;5.50;;;6.70;99.90;;;;;;5043193;28;20123;-73
2022/01/30 13:14:41;;;;;;;18.92;3.97;;;6.60;99.90;;;;;;5042820;28;20048;-73
2022/01/30 13:17:08;;;;;;;23.58;4.93;;;6.60;99.90;;;;;;5042925;28;20178;-74
2022/01/30 13:19:42;;;;;;;23.50;5.97;;;6.70;99.90;;;;;;5043016;28;20550;-74
2022/01/30 13:22:33;;;;;;;26.17;5.22;;;6.80;99.90;;;;;;5025062;28;20493;-73
2022/01/30 13:25:01;;;;;;;23.05;5.00;;;6.80;99.90;;;;;;5042428;28;20079;-74
2022/01/30 13:27:26;;;;;;;20.92;4.80;;;6.80;99.90;;;;;;5026410;28;20076;-73
2022/01/30 13:29:53;;;;;;;19.13;4.32;;;6.80;99.90;;;;;;5023654;28;20091;-73
2022/01/30 13:32:24;;;;;;;22.50;5.25;;;6.70;99.90;;;;;;5040512;28;20044;-75
2022/01/30 13:34:50;;;;;;;22.13;4.70;;;6.60;99.90;;;;;;5032949;28;20049;-73
2022/01/30 13:37:19;;;;;;;18.17;4.28;;;6.40;99.90;;;;;;5026016;28;20479;-73
2022/01/30 13:48:17;;;;;;;18.90;3.80;;;7.20;99.90;;;;;;5007931;28;20626;-74
2022/01/30 13:50:52;;;;;;;23.85;4.75;;;7.00;99.90;;;;;;5025802;28;20044;-74
2022/01/30 13:53:21;;;;;;;;;;;7.10;99.90;;;;;;5026111;28;20579;-74
2022/01/30 13:56:01;;;;;;;21.75;5.03;;;7.10;99.90;;;;;;5025431;28;19924;-74
2022/01/30 13:58:43;;;;;;;22.65;3.70;;;6.80;99.90;;;;;;5042285;28;20604;-74
2022/01/30 14:01:11;;;;;;;19.00;5.15;;;6.60;99.90;;;;;;5041870;28;20129;-74